Time;durP1;ratioP1;P1;durP2;ratioP2;P2;SDS_P1;SDS_P2;PMS_P1;PMS_P2;Temp;Humidity;BMP_temperature;BMP_pressure;BME280_temperature;BME280_humidity;BME280_pressure;Samples;Min_cycle;Max_cycle;Signal;HPM_P1;HPM_P2
2021/08/15 00:01:23;;;;;;;11.32;6.22;;;22.90;99.90;;;;;;4987041;28;20026;-86
2021/08/15 00:03:50;;;;;;;10.00;7.00;;;23.00;99.90;;;;;;4992618;28;20038;-86
2021/08/15 00:06:16;;;;;;;9.05;6.45;;;22.90;99.90;;;;;;4993740;28;20368;-86
2021/08/15 00:08:43;;;;;;;10.15;6.70;;;22.90;99.90;;;;;;4990218;28;20018;-86
2021/08/15 00:11:09;;;;;;;13.13;7.38;;;22.90;99.90;;;;;;4989045;28;20042;-85
2021/08/15 00:13:34;;;;;;;12.52;7.35;;;22.90;99.90;;;;;;4985303;28;20026;-86
2021/08/15 00:16:00;;;;;;;9.75;6.97;;;22.90;99.90;;;;;;4991658;28;20054;-86
2021/08/15 00:18:26;;;;;;;10.82;7.15;;;22.90;99.90;;;;;;4990223;28;20372;-86
2021/08/15 00:20:51;;;;;;;14.25;8.38;;;22.90;99.90;;;;;;4991459;28;20066;-86
2021/08/15 00:23:17;;;;;;;16.25;9.25;;;22.80;99.90;;;;;;4993345;28;20041;-86
2021/08/15 00:25:42;;;;;;;18.30;9.27;;;22.80;99.90;;;;;;4991484;28;20097;-86
2021/08/15 00:28:08;;;;;;;13.68;9.35;;;22.80;99.90;;;;;;4986838;28;20033;-86
2021/08/15 00:30:34;;;;;;;15.73;9.18;;;22.80;99.90;;;;;;4989840;28;20386;-86
2021/08/15 00:32:59;;;;;;;14.60;9.02;;;22.80;99.90;;;;;;4991432;28;20064;-86
2021/08/15 00:35:25;;;;;;;11.75;8.30;;;22.80;99.90;;;;;;4991909;28;20156;-85
2021/08/15 00:37:51;;;;;;;15.38;9.07;;;22.70;99.90;;;;;;4983152;28;20030;-86
2021/08/15 00:40:16;;;;;;;15.15;9.23;;;22.70;99.90;;;;;;4992174;28;20038;-86
2021/08/15 00:42:42;;;;;;;12.93;9.07;;;22.70;99.90;;;;;;4991211;28;20069;-85
2021/08/15 00:45:08;;;;;;;16.65;8.65;;;22.70;99.90;;;;;;4995544;28;20057;-86
2021/08/15 00:47:34;;;;;;;12.60;7.95;;;22.60;99.90;;;;;;4985978;28;20153;-86
2021/08/15 00:50:01;;;;;;;14.63;8.38;;;22.60;99.90;;;;;;5049102;23;20064;-83
2021/08/15 00:52:27;;;;;;;11.82;8.48;;;22.50;99.90;;;;;;5049712;28;20028;-78
2021/08/15 00:55:00;;;;;;;13.02;8.18;;;22.40;99.90;;;;;;5037365;28;20029;-81
2021/08/15 00:57:30;;;;;;;12.05;8.10;;;22.40;99.90;;;;;;5035874;28;20033;-81
2021/08/15 01:00:03;;;;;;;10.57;7.70;;;22.40;99.90;;;;;;5036670;28;20025;-81
2021/08/15 01:02:28;;;;;;;16.13;8.55;;;22.40;99.90;;;;;;5037291;28;20042;-80
2021/08/15 01:04:55;;;;;;;14.60;8.43;;;22.30;99.90;;;;;;5034352;28;20580;-81
2021/08/15 01:07:21;;;;;;;14.05;9.38;;;22.30;99.90;;;;;;5036946;28;20103;-81
2021/08/15 01:09:46;;;;;;;14.57;9.05;;;22.20;99.90;;;;;;5034650;28;20486;-80
2021/08/15 01:12:12;;;;;;;14.55;8.80;;;22.20;99.90;;;;;;5034407;28;20025;-80
2021/08/15 01:14:37;;;;;;;16.95;9.30;;;22.20;99.90;;;;;;5037939;28;20017;-79
2021/08/15 01:17:03;;;;;;;14.60;9.25;;;22.10;99.90;;;;;;5036724;28;20030;-81
2021/08/15 01:19:30;;;;;;;12.32;8.65;;;22.20;99.90;;;;;;5036828;28;20108;-77
2021/08/15 01:21:56;;;;;;;14.52;9.27;;;22.10;99.90;;;;;;5033768;28;20040;-79
2021/08/15 01:24:23;;;;;;;13.93;9.57;;;22.10;99.90;;;;;;5035664;28;20093;-80
2021/08/15 01:26:49;;;;;;;13.98;9.40;;;22.10;99.90;;;;;;5034683;28;20101;-81
2021/08/15 01:29:15;;;;;;;14.27;9.52;;;22.10;99.90;;;;;;5035347;28;20025;-80
2021/08/15 01:31:40;;;;;;;12.10;8.48;;;22.00;99.90;;;;;;5022027;28;20097;-80
2021/08/15 01:34:06;;;;;;;16.13;8.82;;;22.00;99.90;;;;;;5035108;28;20029;-79
2021/08/15 01:36:32;;;;;;;13.13;9.15;;;22.00;99.90;;;;;;5037559;28;20026;-81
2021/08/15 01:38:57;;;;;;;11.23;8.57;;;22.00;99.90;;;;;;5036938;28;20105;-80
2021/08/15 01:41:23;;;;;;;11.98;8.18;;;21.90;99.90;;;;;;5032050;28;20083;-80
2021/08/15 01:43:52;;;;;;;14.48;8.52;;;22.00;99.90;;;;;;5036993;28;20038;-80
2021/08/15 01:46:20;;;;;;;16.05;9.32;;;22.00;99.90;;;;;;5036588;28;20112;-82
2021/08/15 01:48:46;;;;;;;11.63;8.80;;;21.90;99.90;;;;;;5024258;28;20380;-81
2021/08/15 01:51:14;;;;;;;14.32;9.60;;;21.90;99.90;;;;;;5025619;28;20390;-81
2021/08/15 01:53:39;;;;;;;13.27;9.30;;;21.80;99.90;;;;;;5036688;28;20030;-80
2021/08/15 01:56:05;;;;;;;13.90;8.73;;;21.70;99.90;;;;;;5052671;28;20124;-81
2021/08/15 01:58:31;;;;;;;16.77;9.73;;;21.70;99.90;;;;;;5032147;28;20132;-80
2021/08/15 02:00:56;;;;;;;14.93;10.35;;;21.60;99.90;;;;;;5036507;28;20022;-81
2021/08/15 02:03:22;;;;;;;14.05;9.15;;;21.50;99.90;;;;;;5024417;28;20061;-81
2021/08/15 02:05:48;;;;;;;18.23;9.65;;;21.50;99.90;;;;;;5033370;28;20021;-81
2021/08/15 02:08:14;;;;;;;14.07;9.77;;;21.40;99.90;;;;;;5035266;28;20048;-81
2021/08/15 02:10:39;;;;;;;14.88;9.57;;;21.40;99.90;;;;;;5034787;28;20021;-82
2021/08/15 02:13:06;;;;;;;13.18;9.38;;;21.30;99.90;;;;;;5028513;28;20096;-80
2021/08/15 02:15:32;;;;;;;13.23;9.10;;;21.40;99.90;;;;;;5036581;28;20021;-81
2021/08/15 02:18:00;;;;;;;13.43;8.77;;;21.30;99.90;;;;;;5036596;28;20466;-82
2021/08/15 02:20:27;;;;;;;16.20;9.70;;;21.40;99.90;;;;;;5037119;28;20045;-81
2021/08/15 02:22:53;;;;;;;13.27;9.13;;;21.40;99.90;;;;;;5038934;28;20022;-81
2021/08/15 02:25:21;;;;;;;15.68;9.65;;;21.40;99.90;;;;;;5042463;28;20022;-81
2021/08/15 02:27:47;;;;;;;15.80;9.25;;;21.30;99.90;;;;;;5042806;28;20025;-81
2021/08/15 02:30:16;;;;;;;15.32;9.13;;;21.30;99.90;;;;;;5040907;28;20029;-81
2021/08/15 02:32:42;;;;;;;12.63;9.05;;;21.20;99.90;;;;;;5043077;28;20029;-81
2021/08/15 02:35:10;;;;;;;14.23;9.05;;;21.20;99.90;;;;;;5043204;28;20036;-81
2021/08/15 02:37:37;;;;;;;15.25;8.73;;;21.20;99.90;;;;;;5028669;28;20026;-77
2021/08/15 02:40:04;;;;;;;14.32;8.63;;;21.20;99.90;;;;;;5055314;28;20045;-79
2021/08/15 02:42:32;;;;;;;17.50;9.20;;;21.20;99.90;;;;;;5048529;28;20029;-78
2021/08/15 02:44:58;;;;;;;15.00;9.93;;;21.10;99.90;;;;;;5047953;28;20010;-80
2021/08/15 02:47:24;;;;;;;12.38;8.88;;;21.10;99.90;;;;;;5042184;28;20056;-80
2021/08/15 02:49:49;;;;;;;15.55;9.15;;;21.10;99.90;;;;;;5041540;28;20393;-80
2021/08/15 02:52:15;;;;;;;11.20;8.32;;;21.10;99.90;;;;;;5042354;28;20084;-81
2021/08/15 02:54:41;;;;;;;13.15;8.98;;;21.10;99.90;;;;;;5043153;28;20120;-81
2021/08/15 02:57:07;;;;;;;12.65;8.93;;;21.10;99.90;;;;;;5028600;28;20049;-81
2021/08/15 02:59:39;;;;;;;12.00;8.30;;;21.00;99.90;;;;;;5038503;28;20630;-80
2021/08/15 03:02:06;;;;;;;14.40;8.77;;;21.10;99.90;;;;;;5043139;28;20079;-81
2021/08/15 03:04:31;;;;;;;14.45;8.52;;;21.10;99.90;;;;;;5039225;28;20029;-81
2021/08/15 03:06:57;;;;;;;12.43;8.13;;;21.00;99.90;;;;;;5041008;28;20348;-81
2021/08/15 03:09:22;;;;;;;11.10;8.27;;;21.00;99.90;;;;;;5041569;28;20044;-81
2021/08/15 03:11:48;;;;;;;13.77;8.80;;;21.00;99.90;;;;;;5041070;28;20036;-80
2021/08/15 03:14:13;;;;;;;13.20;9.10;;;21.00;99.90;;;;;;5046251;28;20115;-79
2021/08/15 03:16:39;;;;;;;14.10;8.68;;;21.00;99.90;;;;;;5053956;28;20052;-79
2021/08/15 03:19:04;;;;;;;15.32;8.77;;;21.00;99.90;;;;;;5050707;28;20033;-80
2021/08/15 03:21:31;;;;;;;12.18;8.57;;;21.00;99.90;;;;;;5037244;28;20155;-80
2021/08/15 03:23:57;;;;;;;13.23;8.18;;;20.90;99.90;;;;;;5044377;28;20037;-80
2021/08/15 03:26:23;;;;;;;12.80;7.97;;;20.90;99.90;;;;;;5059567;28;20025;-81
2021/08/15 03:28:48;;;;;;;11.75;8.43;;;21.00;99.90;;;;;;5044839;28;20041;-80
2021/08/15 03:31:14;;;;;;;11.07;8.32;;;21.00;99.90;;;;;;5041761;28;20026;-81
2021/08/15 03:33:40;;;;;;;14.48;8.95;;;21.00;99.90;;;;;;5040171;28;20028;-80
2021/08/15 03:36:06;;;;;;;13.60;8.65;;;21.00;99.90;;;;;;5038692;28;20038;-79
2021/08/15 03:38:31;;;;;;;11.68;8.23;;;21.00;99.90;;;;;;5053623;28;20025;-80
2021/08/15 03:40:57;;;;;;;13.85;8.63;;;21.10;99.90;;;;;;5041440;28;20036;-81
2021/08/15 03:43:22;;;;;;;16.10;8.55;;;21.00;99.90;;;;;;5041260;28;20029;-81
2021/08/15 03:45:48;;;;;;;11.88;8.50;;;20.90;99.90;;;;;;5036142;28;20029;-79
2021/08/15 03:48:13;;;;;;;11.75;8.55;;;20.90;99.90;;;;;;5032288;28;20018;-80
2021/08/15 03:50:39;;;;;;;13.65;8.23;;;20.90;99.90;;;;;;5040259;28;20727;-81
2021/08/15 03:53:05;;;;;;;10.32;8.07;;;20.90;99.90;;;;;;5040307;28;20025;-81
2021/08/15 03:55:30;;;;;;;13.80;8.60;;;20.80;99.90;;;;;;5036218;28;20037;-81
2021/08/15 03:57:56;;;;;;;12.73;8.40;;;20.80;99.90;;;;;;5040945;28;20036;-80
2021/08/15 04:00:21;;;;;;;10.63;7.97;;;20.80;99.90;;;;;;5041106;28;20076;-80
2021/08/15 04:02:47;;;;;;;12.23;8.60;;;20.80;99.90;;;;;;5030985;28;20034;-81
2021/08/15 04:05:13;;;;;;;13.02;8.93;;;20.80;99.90;;;;;;5020481;28;20105;-80
2021/08/15 04:07:38;;;;;;;12.98;8.82;;;20.80;99.90;;;;;;5039214;28;20033;-79
2021/08/15 04:10:08;;;;;;;13.20;8.73;;;20.70;99.90;;;;;;5038517;28;20079;-81
2021/08/15 04:12:34;;;;;;;12.35;8.95;;;20.70;99.90;;;;;;5033485;28;20421;-82
2021/08/15 04:15:00;;;;;;;13.55;9.50;;;20.60;99.90;;;;;;5039822;28;20584;-81
2021/08/15 04:17:25;;;;;;;15.02;9.93;;;20.60;99.90;;;;;;5042812;28;20033;-81
2021/08/15 04:19:51;;;;;;;18.05;10.10;;;20.50;99.90;;;;;;5036841;28;20040;-80
2021/08/15 04:22:17;;;;;;;13.38;9.55;;;20.50;99.90;;;;;;5021284;28;20030;-81
2021/08/15 04:24:42;;;;;;;15.85;10.35;;;20.50;99.90;;;;;;5046855;28;20028;-81
2021/08/15 04:27:08;;;;;;;13.85;9.90;;;20.40;99.90;;;;;;5039832;28;20034;-81
2021/08/15 04:29:39;;;;;;;15.82;10.65;;;20.40;99.90;;;;;;5028860;28;20026;-81
2021/08/15 04:32:05;;;;;;;16.67;11.10;;;20.40;99.90;;;;;;5040067;28;20394;-81
2021/08/15 04:34:31;;;;;;;18.23;11.52;;;20.40;99.90;;;;;;5039290;28;20082;-80
2021/08/15 04:36:56;;;;;;;16.05;10.60;;;20.40;99.90;;;;;;5042908;28;20115;-81
2021/08/15 04:39:22;;;;;;;17.70;11.25;;;20.40;99.90;;;;;;5039483;28;20025;-81
2021/08/15 04:41:48;;;;;;;17.40;12.32;;;20.40;99.90;;;;;;5039443;28;20505;-81
2021/08/15 04:44:13;;;;;;;18.83;11.60;;;20.40;99.90;;;;;;5034319;28;20064;-80
2021/08/15 04:46:39;;;;;;;16.50;11.82;;;20.30;99.90;;;;;;5039742;28;20022;-82
2021/08/15 04:49:04;;;;;;;17.90;11.82;;;20.40;99.90;;;;;;5043017;28;20032;-81
2021/08/15 04:51:30;;;;;;;16.52;11.40;;;20.40;99.90;;;;;;5043189;28;20026;-81
2021/08/15 04:53:56;;;;;;;16.73;12.30;;;20.40;99.90;;;;;;5036176;28;20048;-82
2021/08/15 04:56:21;;;;;;;17.40;11.18;;;20.40;99.90;;;;;;5036614;28;20053;-82
2021/08/15 04:58:47;;;;;;;17.35;11.70;;;20.40;99.90;;;;;;5026381;28;20030;-81
2021/08/15 05:01:12;;;;;;;19.20;12.77;;;20.50;99.90;;;;;;5027499;28;20037;-82
2021/08/15 05:03:38;;;;;;;19.27;13.23;;;20.50;99.90;;;;;;5037692;28;20478;-81
2021/08/15 05:06:04;;;;;;;16.25;11.82;;;20.50;99.90;;;;;;5038414;28;20022;-79
2021/08/15 05:08:30;;;;;;;16.92;12.70;;;20.40;99.90;;;;;;5036003;28;20029;-80
2021/08/15 05:10:58;;;;;;;16.88;12.52;;;20.50;99.90;;;;;;5039503;28;20036;-80
2021/08/15 05:13:27;;;;;;;16.33;13.10;;;20.40;99.90;;;;;;5031790;28;20037;-79
2021/08/15 05:15:54;;;;;;;18.65;12.88;;;20.40;99.90;;;;;;5038702;28;20077;-81
2021/08/15 05:18:19;;;;;;;18.02;12.65;;;20.30;99.90;;;;;;5037948;28;20025;-81
2021/08/15 05:20:45;;;;;;;18.85;13.80;;;20.30;99.90;;;;;;5031816;28;20104;-81
2021/08/15 05:23:11;;;;;;;20.73;12.75;;;20.40;99.90;;;;;;5036105;28;20033;-79
2021/08/15 05:25:37;;;;;;;17.80;12.27;;;20.50;99.90;;;;;;5037452;28;20095;-81
2021/08/15 05:28:04;;;;;;;18.10;13.13;;;20.50;99.90;;;;;;5036063;28;20022;-81
2021/08/15 05:30:31;;;;;;;17.45;12.68;;;20.60;99.90;;;;;;5026487;28;20040;-80
2021/08/15 05:32:56;;;;;;;17.90;11.90;;;20.80;99.90;;;;;;5034390;28;20033;-78
2021/08/15 05:35:22;;;;;;;18.85;12.13;;;20.90;99.90;;;;;;5036305;28;20021;-81
2021/08/15 05:37:48;;;;;;;17.73;12.27;;;20.90;99.90;;;;;;5037111;28;20030;-80
2021/08/15 05:40:14;;;;;;;16.63;12.23;;;21.00;99.90;;;;;;5029116;28;20379;-80
2021/08/15 05:42:40;;;;;;;17.90;11.55;;;21.10;99.90;;;;;;5037760;28;20036;-80
2021/08/15 05:45:06;;;;;;;14.45;10.63;;;21.20;99.90;;;;;;5037056;28;20332;-81
2021/08/15 05:47:32;;;;;;;16.58;11.23;;;21.30;99.90;;;;;;5026952;28;20037;-80
2021/08/15 05:49:57;;;;;;;16.50;11.27;;;21.30;99.90;;;;;;5022198;28;20033;-80
2021/08/15 05:52:24;;;;;;;15.85;11.15;;;21.50;99.90;;;;;;5036478;28;20028;-80
2021/08/15 05:54:51;;;;;;;18.45;10.73;;;21.50;99.90;;;;;;5033181;28;20022;-79
2021/08/15 05:57:16;;;;;;;16.20;10.55;;;21.60;99.90;;;;;;5035722;28;20025;-80
2021/08/15 05:59:42;;;;;;;15.15;9.30;;;21.70;99.90;;;;;;5041638;28;20056;-80
2021/08/15 06:02:08;;;;;;;13.93;9.05;;;21.80;99.90;;;;;;5042208;28;20083;-80
2021/08/15 06:04:33;;;;;;;13.27;9.65;;;21.90;99.90;;;;;;5037116;28;20037;-79
2021/08/15 06:06:59;;;;;;;13.85;8.55;;;22.00;99.90;;;;;;5022903;28;20084;-81
2021/08/15 06:09:25;;;;;;;17.77;9.65;;;22.20;99.90;;;;;;5035488;28;20021;-81
2021/08/15 06:11:51;;;;;;;14.35;9.23;;;22.30;99.90;;;;;;5046560;28;20027;-81
2021/08/15 06:14:17;;;;;;;14.10;9.30;;;22.40;99.90;;;;;;5046202;28;20049;-80
2021/08/15 06:16:43;;;;;;;15.52;8.95;;;22.50;99.90;;;;;;5046924;28;20055;-79
2021/08/15 06:19:09;;;;;;;14.40;9.35;;;22.50;99.90;;;;;;5046627;28;20033;-79
2021/08/15 06:21:34;;;;;;;14.93;9.30;;;22.60;99.90;;;;;;5044495;28;20038;-81
2021/08/15 06:24:00;;;;;;;14.43;9.48;;;22.70;99.90;;;;;;5035231;28;20029;-80
2021/08/15 06:26:27;;;;;;;17.08;9.50;;;22.70;99.90;;;;;;5035434;28;20028;-80
2021/08/15 06:28:53;;;;;;;11.65;8.48;;;22.70;99.90;;;;;;5031737;28;20026;-79
2021/08/15 06:31:19;;;;;;;11.82;8.60;;;22.70;99.90;;;;;;5031701;28;20052;-81
2021/08/15 06:33:46;;;;;;;14.20;9.15;;;22.80;99.90;;;;;;5035016;28;20108;-81
2021/08/15 06:36:11;;;;;;;15.70;8.52;;;22.90;99.90;;;;;;5033926;28;20108;-81
2021/08/15 06:38:37;;;;;;;14.80;8.88;;;23.00;99.90;;;;;;5035595;28;20448;-81
2021/08/15 06:41:02;;;;;;;14.75;9.30;;;23.10;99.90;;;;;;5032850;28;20051;-80
2021/08/15 06:43:28;;;;;;;17.48;9.35;;;23.20;99.90;;;;;;5036235;28;20033;-81
2021/08/15 06:45:54;;;;;;;13.07;8.20;;;23.30;99.90;;;;;;5035484;28;20100;-82
2021/08/15 06:48:22;;;;;;;12.43;8.93;;;23.30;99.90;;;;;;5033604;28;20119;-81
2021/08/15 06:50:49;;;;;;;11.00;8.88;;;23.30;99.90;;;;;;5043702;28;20481;-81
2021/08/15 06:53:14;;;;;;;14.93;9.45;;;23.40;99.90;;;;;;5039657;28;20470;-81
2021/08/15 06:55:41;;;;;;;13.65;9.38;;;23.40;99.90;;;;;;5040319;28;20046;-81
2021/08/15 06:58:06;;;;;;;14.93;8.75;;;23.40;99.90;;;;;;5038128;28;20052;-81
2021/08/15 07:00:32;;;;;;;12.32;8.52;;;23.40;99.90;;;;;;5034295;28;20146;-78
2021/08/15 07:02:58;;;;;;;11.80;8.88;;;23.30;99.90;;;;;;5033286;28;20029;-81
2021/08/15 07:05:23;;;;;;;14.95;9.50;;;23.20;99.90;;;;;;5037724;28;20522;-81
2021/08/15 07:07:49;;;;;;;13.05;9.70;;;23.10;99.90;;;;;;5039289;28;20023;-81
2021/08/15 07:10:15;;;;;;;13.02;9.13;;;23.00;99.90;;;;;;5034674;28;20653;-81
2021/08/15 07:12:40;;;;;;;13.70;8.90;;;22.90;99.90;;;;;;5038520;28;20107;-80
2021/08/15 07:15:06;;;;;;;12.65;9.77;;;23.00;99.90;;;;;;5025270;28;20037;-78
2021/08/15 07:17:36;;;;;;;12.50;9.55;;;23.20;99.90;;;;;;5038503;28;20017;-81
2021/08/15 07:20:06;;;;;;;14.57;9.50;;;23.40;99.90;;;;;;5052015;28;20029;-80
2021/08/15 07:22:31;;;;;;;16.05;9.75;;;23.60;99.90;;;;;;5051088;28;20021;-79
2021/08/15 07:24:57;;;;;;;15.27;9.70;;;23.80;99.90;;;;;;5034484;28;20515;-81
2021/08/15 07:27:23;;;;;;;14.73;9.02;;;23.80;99.90;;;;;;5028563;28;20029;-78
2021/08/15 07:29:49;;;;;;;17.48;10.02;;;24.10;99.90;;;;;;5030036;28;20558;-81
2021/08/15 07:32:15;;;;;;;16.02;10.15;;;24.20;99.90;;;;;;5029617;28;20029;-81
2021/08/15 07:34:40;;;;;;;13.23;9.32;;;24.10;99.90;;;;;;5027911;28;20021;-81
2021/08/15 07:37:07;;;;;;;14.75;9.88;;;24.30;99.90;;;;;;5040618;28;20063;-80
2021/08/15 07:39:33;;;;;;;17.48;10.63;;;24.50;99.90;;;;;;5029927;28;20025;-81
2021/08/15 07:41:59;;;;;;;15.18;9.20;;;24.50;99.90;;;;;;5029226;28;20040;-80
2021/08/15 07:44:26;;;;;;;12.50;9.18;;;24.40;99.90;;;;;;5029214;28;20549;-80
2021/08/15 07:46:52;;;;;;;13.95;9.40;;;24.50;99.90;;;;;;5029246;28;20017;-80
2021/08/15 07:49:17;;;;;;;16.55;8.75;;;24.60;99.90;;;;;;5032494;28;20520;-81
2021/08/15 07:51:43;;;;;;;14.88;8.70;;;24.70;99.90;;;;;;5034557;28;20028;-81
2021/08/15 07:54:09;;;;;;;14.77;8.95;;;24.80;99.90;;;;;;5029944;28;20029;-81
2021/08/15 07:56:35;;;;;;;11.25;8.10;;;25.00;99.90;;;;;;5051365;28;20028;-81
2021/08/15 07:59:01;;;;;;;11.20;8.35;;;25.20;99.90;;;;;;5033023;28;20022;-81
2021/08/15 08:01:26;;;;;;;12.93;8.65;;;25.10;99.90;;;;;;5034871;28;20662;-81
2021/08/15 08:03:52;;;;;;;11.98;8.18;;;25.10;99.90;;;;;;5041093;28;20048;-81
2021/08/15 08:06:18;;;;;;;21.05;8.15;;;25.30;99.90;;;;;;5038823;28;20028;-81
2021/08/15 08:08:43;;;;;;;11.23;8.38;;;25.50;99.90;;;;;;5039069;28;20029;-80
2021/08/15 08:11:09;;;;;;;16.45;7.70;;;25.70;99.90;;;;;;5040754;28;20037;-79
2021/08/15 08:13:35;;;;;;;11.80;7.20;;;25.40;99.90;;;;;;5055846;28;20108;-80
2021/08/15 08:16:01;;;;;;;13.25;7.63;;;25.60;99.90;;;;;;5037672;28;20044;-80
2021/08/15 08:18:27;;;;;;;12.85;7.72;;;25.70;99.90;;;;;;5037550;28;20053;-81
2021/08/15 08:20:54;;;;;;;14.18;8.48;;;25.70;99.90;;;;;;5022289;28;20111;-80
2021/08/15 08:23:20;;;;;;;12.85;7.68;;;25.90;99.90;;;;;;5041192;28;20112;-79
2021/08/15 08:25:47;;;;;;;12.18;7.68;;;26.10;99.90;;;;;;5036305;28;20187;-80
2021/08/15 08:28:13;;;;;;;13.40;7.85;;;26.20;99.90;;;;;;5038498;28;20017;-80
2021/08/15 08:30:39;;;;;;;12.55;7.55;;;26.30;99.90;;;;;;5038465;28;20029;-79
2021/08/15 08:33:05;;;;;;;10.63;7.45;;;26.50;99.90;;;;;;5042988;23;20088;-79
2021/08/15 08:35:31;;;;;;;10.48;7.35;;;26.70;99.90;;;;;;5037462;28;20017;-80
2021/08/15 08:37:57;;;;;;;11.90;7.03;;;26.90;99.90;;;;;;5033997;28;20030;-80
2021/08/15 08:40:23;;;;;;;14.00;7.20;;;27.00;99.90;;;;;;5035257;28;20517;-80
2021/08/15 08:42:50;;;;;;;9.35;6.80;;;27.00;99.90;;;;;;5025427;28;20064;-80
2021/08/15 08:45:22;;;;;;;13.05;7.25;;;27.10;99.90;;;;;;5034297;28;20026;-80
2021/08/15 08:47:49;;;;;;;9.82;6.70;;;27.10;99.90;;;;;;5032375;28;20076;-80
2021/08/15 08:50:15;;;;;;;12.30;7.30;;;27.10;99.90;;;;;;5027419;28;20158;-80
2021/08/15 08:52:42;;;;;;;10.77;6.68;;;26.30;99.90;;;;;;5029405;28;20028;-80
2021/08/15 08:55:08;;;;;;;9.23;6.75;;;26.40;99.90;;;;;;5029544;28;20033;-80
2021/08/15 08:57:34;;;;;;;9.82;6.78;;;26.40;99.90;;;;;;5030209;28;20029;-80
2021/08/15 09:00:00;;;;;;;11.95;6.63;;;26.50;99.90;;;;;;5029371;28;20048;-80
2021/08/15 09:02:26;;;;;;;8.93;6.63;;;26.80;99.90;;;;;;5023072;28;20038;-80
2021/08/15 09:04:53;;;;;;;9.93;5.93;;;27.10;99.90;;;;;;5024016;28;20128;-80
2021/08/15 09:07:23;;;;;;;9.63;5.68;;;27.30;99.90;;;;;;5026800;28;20474;-80
2021/08/15 09:09:55;;;;;;;9.13;6.15;;;27.60;99.90;;;;;;5005144;28;20022;-80
2021/08/15 09:12:32;;;;;;;11.48;6.50;;;27.80;99.90;;;;;;5025121;28;20044;-80
2021/08/15 09:15:11;;;;;;;9.48;5.82;;;28.00;99.90;;;;;;5016612;28;20030;-80
2021/08/15 09:17:39;;;;;;;11.63;6.72;;;27.90;99.90;;;;;;5014086;28;20033;-79
2021/08/15 09:20:07;;;;;;;8.32;5.63;;;27.70;99.90;;;;;;5015739;28;20030;-80
2021/08/15 09:22:35;;;;;;;9.60;5.85;;;28.00;99.90;;;;;;5024558;28;20716;-80
2021/08/15 09:25:02;;;;;;;9.73;6.45;;;27.80;99.60;;;;;;5031665;28;20026;-80
2021/08/15 09:27:35;;;;;;;12.02;6.90;;;27.80;99.70;;;;;;5019094;28;20047;-79
2021/08/15 09:30:14;;;;;;;11.73;6.45;;;27.60;99.90;;;;;;5014149;28;20033;-79
2021/08/15 09:32:49;;;;;;;9.98;6.18;;;27.50;99.60;;;;;;5017285;28;20033;-79
2021/08/15 09:35:24;;;;;;;10.32;6.00;;;27.60;99.50;;;;;;5033850;28;20068;-80
2021/08/15 09:38:04;;;;;;;8.75;6.00;;;27.70;99.20;;;;;;5009405;28;20104;-80
2021/08/15 09:40:48;;;;;;;12.05;6.38;;;27.80;99.30;;;;;;5016051;28;20030;-79
2021/08/15 09:43:25;;;;;;;12.18;6.40;;;27.80;99.90;;;;;;5025166;28;20038;-80
2021/08/15 09:45:55;;;;;;;9.07;5.72;;;28.00;99.40;;;;;;5009415;28;20109;-79
2021/08/15 09:48:24;;;;;;;8.93;5.90;;;28.30;99.40;;;;;;5016856;28;20389;-80
2021/08/15 09:51:11;;;;;;;9.93;5.88;;;28.60;99.50;;;;;;5021883;28;20024;-85
2021/08/15 09:53:56;;;;;;;10.45;6.03;;;28.70;99.90;;;;;;5022634;28;20121;-85
2021/08/15 09:56:39;;;;;;;11.27;6.18;;;28.70;99.90;;;;;;5025474;28;20033;-85
2021/08/15 09:59:25;;;;;;;15.82;6.60;;;28.60;99.50;;;;;;5022717;28;20084;-85
2021/08/15 10:01:55;;;;;;;9.98;6.07;;;28.80;99.90;;;;;;5012442;28;20025;-85
2021/08/15 10:04:23;;;;;;;10.50;6.97;;;28.70;99.50;;;;;;5022778;28;20025;-85
2021/08/15 10:06:54;;;;;;;10.68;6.20;;;28.70;99.70;;;;;;5024837;28;20090;-85
2021/08/15 10:09:21;;;;;;;8.63;6.70;;;28.50;99.70;;;;;;5021922;28;20029;-83
2021/08/15 10:11:47;;;;;;;11.15;6.82;;;28.50;99.90;;;;;;5020146;28;20124;-83
2021/08/15 10:14:14;;;;;;;10.75;6.40;;;28.60;99.90;;;;;;5024831;28;20109;-83
2021/08/15 10:16:45;;;;;;;9.05;6.43;;;28.90;99.90;;;;;;5021084;28;20029;-83
2021/08/15 10:19:15;;;;;;;11.23;6.90;;;28.90;99.20;;;;;;5015380;28;20030;-83
2021/08/15 10:21:44;;;;;;;12.60;7.20;;;29.20;99.40;;;;;;5019708;28;20030;-84
2021/08/15 10:24:12;;;;;;;12.35;6.72;;;29.10;99.10;;;;;;5027008;28;20025;-83
2021/08/15 10:26:42;;;;;;;11.98;7.68;;;29.00;99.10;;;;;;5025820;28;20056;-83
2021/08/15 10:29:35;;;;;;;9.05;6.82;;;28.90;99.20;;;;;;5023736;28;20544;-83
2021/08/15 10:32:13;;;;;;;9.10;6.72;;;29.30;99.10;;;;;;5020363;28;20391;-83
2021/08/15 10:34:51;;;;;;;9.68;7.03;;;29.50;98.80;;;;;;4994556;28;20030;-83
2021/08/15 10:37:23;;;;;;;15.18;7.30;;;29.70;98.40;;;;;;5026072;28;20052;-83
2021/08/15 10:39:49;;;;;;;9.20;6.20;;;30.00;97.80;;;;;;5009394;28;20581;-83
2021/08/15 10:42:39;;;;;;;8.93;6.93;;;30.10;98.30;;;;;;5024234;28;20038;-83
2021/08/15 10:45:09;;;;;;;8.43;6.50;;;30.50;97.80;;;;;;5008233;28;20044;-84
2021/08/15 10:47:36;;;;;;;10.02;6.78;;;30.90;97.30;;;;;;5021798;28;20033;-84
2021/08/15 10:50:05;;;;;;;10.82;7.28;;;31.10;96.90;;;;;;5025740;28;20072;-84
2021/08/15 10:52:39;;;;;;;10.73;6.47;;;31.30;96.50;;;;;;5022548;28;20385;-84
2021/08/15 10:55:09;;;;;;;13.02;6.53;;;31.20;96.00;;;;;;5039128;28;20136;-84
2021/08/15 10:57:36;;;;;;;10.10;7.35;;;31.50;96.40;;;;;;5036693;28;20032;-85
2021/08/15 11:00:22;;;;;;;11.35;6.78;;;31.50;95.70;;;;;;5037599;28;20037;-85
2021/08/15 11:02:47;;;;;;;11.90;6.80;;;31.00;96.10;;;;;;5042438;28;20030;-84
2021/08/15 11:05:36;;;;;;;11.27;6.10;;;30.60;96.50;;;;;;5037476;28;20051;-84
2021/08/15 11:08:03;;;;;;;8.95;6.10;;;30.20;97.50;;;;;;5019605;28;20026;-84
2021/08/15 11:11:07;;;;;;;9.85;6.50;;;29.90;97.70;;;;;;5025214;28;20144;-84
2021/08/15 11:13:35;;;;;;;12.20;6.70;;;29.70;97.90;;;;;;5034950;28;20988;-83
2021/08/15 11:16:25;;;;;;;12.15;6.93;;;30.10;98.20;;;;;;5032431;28;20041;-84
2021/08/15 11:19:11;;;;;;;10.15;6.75;;;30.60;96.80;;;;;;5019821;28;20041;-85
2021/08/15 11:22:03;;;;;;;11.35;6.07;;;31.20;95.90;;;;;;5032528;28;20030;-84
2021/08/15 11:24:30;;;;;;;11.43;6.40;;;31.70;96.20;;;;;;5025019;28;20030;-84
2021/08/15 11:26:56;;;;;;;9.73;6.63;;;32.20;95.60;;;;;;5026502;28;20034;-85
2021/08/15 11:29:23;;;;;;;9.18;6.15;;;32.10;95.10;;;;;;5030761;28;20133;-85
2021/08/15 11:31:51;;;;;;;12.13;7.13;;;31.80;95.60;;;;;;5028144;28;20096;-85
2021/08/15 11:34:16;;;;;;;12.27;6.68;;;31.30;95.60;;;;;;5019335;28;20025;-85
2021/08/15 11:36:42;;;;;;;9.20;6.20;;;30.80;96.00;;;;;;5019399;28;20026;-84
2021/08/15 11:39:08;;;;;;;10.13;6.13;;;30.80;95.70;;;;;;5021939;28;20108;-84
2021/08/15 11:41:36;;;;;;;9.77;5.82;;;30.90;95.20;;;;;;5040038;28;20089;-86
2021/08/15 11:44:02;;;;;;;11.07;6.20;;;30.80;95.60;;;;;;5040416;28;20089;-86
2021/08/15 11:46:34;;;;;;;8.73;5.90;;;30.50;95.80;;;;;;5038836;28;20029;-87
2021/08/15 11:48:59;;;;;;;10.85;6.35;;;30.30;95.70;;;;;;5042886;28;20022;-85
2021/08/15 11:51:25;;;;;;;9.55;6.10;;;29.90;96.20;;;;;;5035296;28;20037;-87
2021/08/15 11:53:51;;;;;;;12.70;6.22;;;29.70;96.10;;;;;;5025331;28;20192;-85
2021/08/15 11:56:18;;;;;;;9.77;5.70;;;29.50;96.40;;;;;;5042196;28;20081;-85
2021/08/15 11:58:49;;;;;;;9.85;5.70;;;29.20;97.10;;;;;;5040886;28;20632;-85
2021/08/15 12:01:22;;;;;;;10.13;6.53;;;29.00;96.90;;;;;;5040533;28;20033;-85
2021/08/15 12:04:06;;;;;;;11.05;5.90;;;28.80;96.80;;;;;;5028184;28;20026;-85
2021/08/15 12:06:38;;;;;;;10.65;6.15;;;28.70;97.50;;;;;;5040223;28;20029;-85
2021/08/15 12:09:21;;;;;;;9.90;6.25;;;28.60;97.90;;;;;;5039679;28;20030;-85
2021/08/15 12:11:58;;;;;;;8.57;5.97;;;28.50;97.90;;;;;;5028611;28;20030;-85
2021/08/15 12:14:33;;;;;;;9.93;6.28;;;28.30;98.50;;;;;;5039947;28;20025;-85
2021/08/15 12:16:59;;;;;;;10.57;6.35;;;28.30;99.50;;;;;;5040937;28;20033;-85
2021/08/15 12:19:27;;;;;;;9.73;6.78;;;28.20;99.90;;;;;;5026980;28;20038;-84
2021/08/15 12:21:54;;;;;;;12.10;6.78;;;28.10;99.90;;;;;;5035967;28;20042;-86
2021/08/15 12:24:26;;;;;;;12.57;7.03;;;28.00;99.90;;;;;;5034438;28;20264;-85
2021/08/15 12:26:52;;;;;;;10.30;7.32;;;28.00;99.90;;;;;;5034152;28;20033;-86
2021/08/15 12:29:42;;;;;;;13.13;7.15;;;27.80;99.90;;;;;;5021633;28;20026;-87
2021/08/15 12:32:20;;;;;;;11.63;7.82;;;27.70;99.90;;;;;;5009050;28;20221;-89
2021/08/15 12:35:02;;;;;;;11.40;7.85;;;27.50;99.90;;;;;;5024653;28;20037;-88
2021/08/15 12:37:57;;;;;;;14.80;7.70;;;27.50;99.90;;;;;;5022370;28;20018;-86
2021/08/15 12:40:30;;;;;;;11.20;8.00;;;27.30;99.90;;;;;;5031402;28;20045;-88